createdAt,value
2019-03-25T08:14:34.589Z,2.05
2019-03-25T08:14:47.178Z,2.05
2019-03-25T08:15:00.209Z,2.05
2019-03-25T08:15:12.989Z,2.05
2019-03-25T08:15:25.331Z,2.05
2019-03-25T08:15:37.070Z,2.06
2019-03-25T08:15:49.409Z,2.06
2019-03-25T08:16:03.420Z,2.06
2019-03-25T08:16:15.648Z,2.06
2019-03-25T08:16:28.171Z,2.06
2019-03-25T08:16:40.751Z,2.07
2019-03-25T08:16:52.753Z,2.07
2019-03-25T08:17:04.870Z,2.07
2019-03-25T08:17:16.909Z,2.07
2019-03-25T08:17:50.809Z,20.73
2019-03-25T08:18:02.750Z,20.75
2019-03-25T08:18:14.472Z,20.77
2019-03-25T08:18:26.912Z,20.78
2019-03-25T08:18:39.313Z,20.80
2019-03-25T08:18:51.281Z,20.81
2019-03-25T08:19:03.950Z,20.83
2019-03-25T08:19:16.369Z,20.84
2019-03-25T08:19:28.813Z,20.84
2019-03-25T08:19:40.394Z,20.84
2019-03-25T08:19:52.052Z,20.84
2019-03-25T08:20:03.738Z,20.83
2019-03-25T08:20:16.395Z,20.82
2019-03-25T08:20:28.050Z,20.81
2019-03-25T08:20:40.054Z,20.79
2019-03-25T08:21:18.912Z,20.72
2019-03-25T08:21:30.691Z,20.70
2019-03-25T08:21:42.932Z,20.70
2019-03-25T08:21:54.554Z,20.70
2019-03-25T08:22:06.236Z,20.68
2019-03-25T08:22:19.151Z,20.68
2019-03-25T08:22:30.913Z,20.66
2019-03-25T08:22:42.873Z,20.66
2019-03-25T08:22:54.589Z,20.66
2019-03-25T08:23:06.512Z,20.65
2019-03-25T08:23:18.213Z,20.93
2019-03-25T08:23:30.628Z,21.61
2019-03-25T08:23:42.948Z,22.09
2019-03-25T08:23:54.994Z,22.15
2019-03-25T08:24:06.751Z,22.01
2019-03-25T08:24:18.708Z,21.88
2019-03-25T08:24:30.693Z,21.76
2019-03-25T08:24:43.052Z,21.64
2019-03-25T08:24:55.154Z,21.53
2019-03-25T08:25:07.658Z,21.42
2019-03-25T08:25:19.969Z,21.34
2019-03-25T08:25:31.670Z,21.26
2019-03-25T08:25:43.812Z,21.19
2019-03-25T08:25:55.491Z,21.12
2019-03-25T08:26:07.512Z,21.06
2019-03-25T08:26:19.131Z,21.01
2019-03-25T08:26:30.933Z,20.97
2019-03-25T08:26:43.107Z,20.92
2019-03-25T08:26:55.872Z,20.88
2019-03-25T08:27:07.850Z,20.85
2019-03-25T08:27:20.208Z,20.83
2019-03-25T08:27:32.911Z,20.80
2019-03-25T08:27:45.510Z,20.77
2019-03-25T08:28:00.160Z,20.76
2019-03-25T08:28:13.549Z,20.74
2019-03-25T08:28:25.372Z,20.72
2019-03-25T08:28:37.190Z,20.71
2019-03-25T08:28:48.871Z,20.70
2019-03-25T08:29:00.632Z,20.69
2019-03-25T08:29:12.649Z,20.69
2019-03-25T08:29:24.561Z,20.69
2019-03-25T08:29:36.754Z,20.69
2019-03-25T08:29:48.916Z,20.69
2019-03-25T08:30:00.652Z,20.68
2019-03-25T08:30:12.991Z,20.68
2019-03-25T08:30:24.869Z,20.68
2019-03-25T08:30:37.214Z,20.69
2019-03-25T08:30:49.471Z,20.69
2019-03-25T08:31:01.591Z,20.70
2019-03-25T08:31:13.352Z,20.70
2019-03-25T08:31:25.351Z,20.71
2019-03-25T08:31:37.051Z,20.72
2019-03-25T08:31:48.913Z,20.73
2019-03-25T08:32:00.490Z,20.75
2019-03-25T08:32:13.429Z,20.76
2019-03-25T08:32:25.112Z,20.79
2019-03-25T08:32:36.775Z,20.80
2019-03-25T08:32:49.009Z,20.80
2019-03-25T08:33:00.673Z,20.81
2019-03-25T08:33:12.452Z,20.81
2019-03-25T08:33:24.196Z,20.82
2019-03-25T08:33:35.971Z,20.83
2019-03-25T08:33:47.750Z,20.84
2019-03-25T08:33:59.811Z,20.84
2019-03-25T08:34:11.552Z,20.85
2019-03-25T08:34:23.414Z,20.87
2019-03-25T08:34:35.433Z,20.89
2019-03-25T08:34:47.531Z,20.90
2019-03-25T08:34:59.091Z,20.91
2019-03-25T08:35:11.254Z,20.92
2019-03-25T08:35:23.190Z,20.95
2019-03-25T08:35:35.553Z,20.97
2019-03-25T08:35:47.736Z,20.97
2019-03-25T08:35:59.868Z,20.98
2019-03-25T08:36:12.350Z,20.99
2019-03-25T08:36:24.133Z,21.00
2019-03-25T08:36:36.013Z,21.01
2019-03-25T08:36:48.152Z,21.01
2019-03-25T08:37:00.156Z,21.01
2019-03-25T08:37:12.269Z,21.02
2019-03-25T08:37:24.075Z,21.02
2019-03-25T08:37:36.770Z,21.02
2019-03-25T08:37:49.230Z,21.02
2019-03-25T08:38:01.853Z,21.00
2019-03-25T08:38:14.451Z,20.99
2019-03-25T08:38:26.491Z,20.99
2019-03-25T08:38:38.014Z,20.98
2019-03-25T08:38:50.231Z,20.97
2019-03-25T08:39:01.952Z,20.97
2019-03-25T08:39:13.832Z,20.97
2019-03-25T08:39:28.292Z,20.97
2019-03-25T08:39:40.182Z,20.97
2019-03-25T08:39:52.427Z,20.96
2019-03-25T08:40:04.173Z,20.96
2019-03-25T08:40:15.871Z,20.96
2019-03-25T08:40:28.310Z,20.94
2019-03-25T08:40:39.931Z,20.93
2019-03-25T08:40:52.112Z,20.92
2019-03-25T08:41:03.751Z,20.93
2019-03-25T08:41:15.975Z,20.93
2019-03-25T08:41:28.293Z,20.94
2019-03-25T08:41:40.249Z,20.94
2019-03-25T08:41:52.469Z,20.95
2019-03-25T08:42:05.012Z,20.96
2019-03-25T08:42:17.533Z,20.98
2019-03-25T08:42:30.613Z,20.98
2019-03-25T08:42:42.348Z,21.00
2019-03-25T08:42:54.814Z,21.01
2019-03-25T08:43:07.335Z,21.02
2019-03-25T08:43:18.915Z,21.02
2019-03-25T08:43:31.050Z,21.02
2019-03-25T08:43:42.731Z,21.03
2019-03-25T08:43:54.492Z,21.04
2019-03-25T08:44:06.469Z,21.04
2019-03-25T08:44:18.631Z,21.05
2019-03-25T08:44:31.034Z,21.06
2019-03-25T08:44:43.372Z,21.06
2019-03-25T08:44:54.890Z,21.07
2019-03-25T08:45:07.411Z,21.08
2019-03-25T08:45:18.912Z,21.09
2019-03-25T08:45:30.733Z,21.09
2019-03-25T08:45:42.452Z,21.09
2019-03-25T08:45:54.431Z,21.09
2019-03-25T08:46:06.571Z,21.09
2019-03-25T08:46:19.532Z,21.09
2019-03-25T08:46:32.352Z,21.09
2019-03-25T08:46:44.491Z,21.10
2019-03-25T08:46:56.372Z,21.11
2019-03-25T08:47:08.597Z,21.11
2019-03-25T08:47:20.147Z,21.11
2019-03-25T08:47:32.631Z,21.11
2019-03-25T08:47:45.349Z,21.11
2019-03-25T08:47:57.973Z,21.11
2019-03-25T08:48:10.551Z,21.11
2019-03-25T08:48:22.889Z,21.11
2019-03-25T08:48:34.632Z,21.12
2019-03-25T08:48:46.549Z,21.13
2019-03-25T08:48:58.488Z,21.12
2019-03-25T08:49:11.988Z,21.12
2019-03-25T08:49:25.031Z,21.12
2019-03-25T08:49:37.472Z,21.12
2019-03-25T08:49:49.710Z,21.13
2019-03-25T08:50:01.593Z,21.13
2019-03-25T08:50:13.232Z,21.13
2019-03-25T08:50:25.370Z,21.13
2019-03-25T08:50:37.456Z,21.12
2019-03-25T08:50:49.093Z,21.11
2019-03-25T08:51:00.650Z,21.11
2019-03-25T08:51:12.972Z,21.12
2019-03-25T08:51:24.992Z,21.13
2019-03-25T08:51:37.912Z,21.15
2019-03-25T08:51:49.970Z,21.16
2019-03-25T08:52:02.318Z,21.18
2019-03-25T08:52:14.911Z,21.20
2019-03-25T08:52:27.049Z,21.20
2019-03-25T08:52:39.591Z,21.21
2019-03-25T08:52:51.691Z,21.22
2019-03-25T08:53:03.951Z,21.21
2019-03-25T08:53:16.491Z,21.22
2019-03-25T08:53:29.548Z,21.23
2019-03-25T08:53:41.430Z,21.23
2019-03-25T08:53:53.114Z,21.24
2019-03-25T08:54:05.029Z,21.25
2019-03-25T08:54:17.252Z,21.24
2019-03-25T08:54:29.189Z,21.24
2019-03-25T08:54:41.032Z,21.24
2019-03-25T08:54:52.831Z,21.24
2019-03-25T08:55:04.770Z,21.24
2019-03-25T08:55:16.875Z,21.23
2019-03-25T08:55:29.012Z,21.23
2019-03-25T08:55:40.810Z,21.23
2019-03-25T08:55:53.090Z,21.24
2019-03-25T08:56:04.954Z,21.24
2019-03-25T08:56:17.971Z,21.24
2019-03-25T08:56:30.551Z,21.20
2019-03-25T08:56:42.749Z,21.18
2019-03-25T08:56:56.130Z,21.14
2019-03-25T08:57:08.191Z,21.10
2019-03-25T08:57:20.154Z,21.07
2019-03-25T08:57:32.172Z,21.05
2019-03-25T08:57:44.352Z,21.03
2019-03-25T08:57:56.836Z,21.00
2019-03-25T08:58:12.232Z,20.97
2019-03-25T08:58:25.830Z,20.94
2019-03-25T08:58:38.749Z,20.92
2019-03-25T08:58:51.732Z,20.90
2019-03-25T08:59:03.934Z,20.88
2019-03-25T08:59:16.093Z,20.88
2019-03-25T08:59:27.870Z,20.87
2019-03-25T08:59:39.713Z,20.87
2019-03-25T08:59:52.032Z,20.87
2019-03-25T09:00:03.946Z,20.86
2019-03-25T09:00:15.935Z,20.86
2019-03-25T09:00:28.470Z,20.85
2019-03-25T09:00:40.191Z,20.85
2019-03-25T09:00:52.470Z,20.85
2019-03-25T09:01:04.873Z,20.85
2019-03-25T09:01:16.752Z,20.85
2019-03-25T09:01:28.813Z,20.85
2019-03-25T09:01:40.754Z,20.85
2019-03-25T09:01:52.350Z,20.84
2019-03-25T09:02:04.278Z,20.84
2019-03-25T09:02:16.574Z,20.84
2019-03-25T09:02:28.313Z,20.84
2019-03-25T09:02:40.370Z,20.84
2019-03-25T09:02:53.055Z,20.84
2019-03-25T09:03:04.669Z,20.83
2019-03-25T09:03:17.212Z,20.83
2019-03-25T09:03:29.312Z,20.83
2019-03-25T09:03:41.059Z,20.83
2019-03-25T09:03:53.534Z,20.82
2019-03-25T09:04:05.490Z,20.82
2019-03-25T09:04:17.150Z,20.82
2019-03-25T09:04:29.089Z,20.83
2019-03-25T09:04:40.917Z,20.83
2019-03-25T09:04:52.732Z,20.83
2019-03-25T09:05:05.277Z,20.82
2019-03-25T09:05:17.653Z,20.82
2019-03-25T09:05:30.516Z,20.81
2019-03-25T09:05:42.569Z,20.81
2019-03-25T09:05:54.691Z,20.81
2019-03-25T09:06:06.629Z,20.81
2019-03-25T09:06:18.633Z,20.81
2019-03-25T09:06:30.588Z,20.81
2019-03-25T09:06:43.213Z,20.80
2019-03-25T09:06:55.111Z,20.79
2019-03-25T09:07:07.310Z,20.78
2019-03-25T09:07:19.189Z,20.77
2019-03-25T09:07:30.853Z,20.76
2019-03-25T09:07:42.990Z,20.76
2019-03-25T09:07:55.533Z,20.76
2019-03-25T09:08:08.132Z,20.76
2019-03-25T09:08:20.292Z,20.76
2019-03-25T09:08:32.749Z,20.76
2019-03-25T09:08:44.912Z,20.75
2019-03-25T09:08:56.791Z,20.74
2019-03-25T09:09:09.133Z,20.74
2019-03-25T09:09:21.229Z,20.73
2019-03-25T09:09:33.224Z,20.72
2019-03-25T09:09:45.109Z,20.70
2019-03-25T09:09:57.033Z,20.70
2019-03-25T09:10:08.896Z,20.69
2019-03-25T09:10:20.510Z,20.68
2019-03-25T09:10:32.433Z,20.68
2019-03-25T09:10:44.091Z,20.68
2019-03-25T09:10:56.852Z,20.67
2019-03-25T09:11:09.270Z,20.67
2019-03-25T09:11:21.554Z,20.66
2019-03-25T09:11:34.640Z,20.66
2019-03-25T09:11:46.609Z,20.66
2019-03-25T09:11:58.512Z,20.65
2019-03-25T09:12:10.452Z,20.65
2019-03-25T09:12:22.471Z,20.65
2019-03-25T09:12:34.770Z,20.66
2019-03-25T09:12:47.291Z,20.65
2019-03-25T09:12:59.090Z,20.65
2019-03-25T09:13:10.756Z,20.65
2019-03-25T09:13:22.650Z,20.65
2019-03-25T09:13:35.294Z,20.64
2019-03-25T09:13:47.292Z,20.64
2019-03-25T09:13:59.494Z,20.64
2019-03-25T09:14:11.750Z,20.64
2019-03-25T09:14:23.851Z,20.64
2019-03-25T09:14:36.015Z,20.65
2019-03-25T09:14:47.988Z,20.64
2019-03-25T09:15:00.363Z,20.64
2019-03-25T09:15:12.831Z,20.64
2019-03-25T09:15:25.513Z,20.64
2019-03-25T09:15:38.032Z,20.64
2019-03-25T09:15:49.772Z,20.64
2019-03-25T09:16:01.427Z,20.64
2019-03-25T09:16:13.250Z,20.64
2019-03-25T09:16:24.869Z,20.64
2019-03-25T09:16:36.930Z,20.64
2019-03-25T09:16:49.009Z,20.64
2019-03-25T09:17:00.785Z,20.65
2019-03-25T09:17:13.572Z,20.65
2019-03-25T09:17:25.431Z,20.65
2019-03-25T09:17:37.397Z,20.65
2019-03-25T09:17:49.092Z,20.65
2019-03-25T09:18:01.593Z,20.66
2019-03-25T09:18:13.872Z,20.66
2019-03-25T09:18:25.459Z,20.66
2019-03-25T09:18:37.833Z,20.66
2019-03-25T09:18:50.414Z,20.66
2019-03-25T09:19:02.646Z,20.66
2019-03-25T09:19:14.327Z,20.65
2019-03-25T09:19:26.439Z,20.66
2019-03-25T09:19:38.389Z,20.67
2019-03-25T09:19:50.372Z,20.67
2019-03-25T09:20:02.132Z,20.66
2019-03-25T09:20:13.933Z,20.66
2019-03-25T09:20:25.970Z,20.67
2019-03-25T09:20:37.848Z,20.66
2019-03-25T09:20:50.150Z,20.66
2019-03-25T09:21:03.830Z,20.67
2019-03-25T09:21:16.332Z,20.67
2019-03-25T09:21:28.001Z,20.67
2019-03-25T09:21:40.669Z,20.67
2019-03-25T09:21:53.055Z,20.67
2019-03-25T09:22:04.993Z,20.68
2019-03-25T09:22:17.212Z,20.68
2019-03-25T09:22:28.813Z,20.67
2019-03-25T09:22:41.028Z,20.67
2019-03-25T09:22:53.071Z,20.68
2019-03-25T09:23:06.013Z,20.67
2019-03-25T09:23:18.091Z,20.68
2019-03-25T09:23:30.231Z,20.67
2019-03-25T09:23:42.570Z,20.68
2019-03-25T09:23:54.648Z,20.68
2019-03-25T09:24:06.710Z,20.69
2019-03-25T09:24:18.634Z,20.69
2019-03-25T09:24:32.909Z,20.69
2019-03-25T09:24:45.392Z,20.69
2019-03-25T09:24:57.691Z,20.69
2019-03-25T09:25:09.532Z,20.70
2019-03-25T09:25:21.434Z,20.70
2019-03-25T09:25:33.611Z,20.70
2019-03-25T09:25:45.434Z,20.70
2019-03-25T09:25:57.613Z,20.70
2019-03-25T09:26:09.674Z,20.71
2019-03-25T09:26:21.390Z,20.71
2019-03-25T09:26:33.832Z,20.71
2019-03-25T09:26:45.493Z,20.72
2019-03-25T09:26:58.351Z,20.72
2019-03-25T09:27:09.872Z,20.71
2019-03-25T09:27:21.793Z,20.72
2019-03-25T09:27:33.911Z,20.71
2019-03-25T09:27:45.673Z,20.71
2019-03-25T09:27:57.463Z,20.72
2019-03-25T09:28:09.955Z,20.72
2019-03-25T09:28:24.545Z,20.72
2019-03-25T09:28:37.248Z,20.72
2019-03-25T09:28:49.815Z,20.72
2019-03-25T09:29:01.552Z,20.72
2019-03-25T09:29:13.315Z,20.73
2019-03-25T09:29:25.231Z,20.73
2019-03-25T09:29:36.871Z,20.73
2019-03-25T09:29:48.470Z,20.73
2019-03-25T09:30:03.348Z,20.73
2019-03-25T09:30:17.352Z,20.73
2019-03-25T09:30:29.613Z,20.73
2019-03-25T09:30:41.853Z,20.73
2019-03-25T09:30:53.853Z,20.74
2019-03-25T09:31:06.212Z,20.74
2019-03-25T09:31:18.051Z,20.75
2019-03-25T09:31:36.768Z,20.74
2019-03-25T09:31:47.331Z,20.75
2019-03-25T09:31:59.250Z,20.76
2019-03-25T09:32:11.498Z,20.75
2019-03-25T09:32:23.630Z,20.76
2019-03-25T09:32:36.192Z,20.76
2019-03-25T09:32:47.891Z,20.76
2019-03-25T09:32:59.988Z,20.77
2019-03-25T09:33:12.410Z,20.77
2019-03-25T09:33:25.222Z,20.78
2019-03-25T09:33:37.792Z,20.77
2019-03-25T09:33:51.710Z,20.78
2019-03-25T09:34:05.012Z,20.78
2019-03-25T09:34:18.770Z,20.77
2019-03-25T09:34:30.768Z,20.78
2019-03-25T09:34:44.841Z,20.78
2019-03-25T09:34:57.133Z,20.78
2019-03-25T09:35:11.973Z,20.78
2019-03-25T09:35:23.952Z,20.79
2019-03-25T09:35:36.170Z,20.79
2019-03-25T09:35:48.360Z,20.78
2019-03-25T09:35:59.992Z,20.78
2019-03-25T09:36:12.775Z,20.79
2019-03-25T09:36:24.768Z,20.79
2019-03-25T09:36:36.451Z,20.79
2019-03-25T09:36:48.639Z,20.79
2019-03-25T09:37:00.652Z,20.79
2019-03-25T09:37:12.763Z,20.79
2019-03-25T09:37:25.290Z,20.79
2019-03-25T09:37:37.971Z,20.79
2019-03-25T09:37:52.673Z,20.79
2019-03-25T09:38:06.515Z,20.79
2019-03-25T09:38:18.316Z,20.79
2019-03-25T09:38:30.831Z,20.79
2019-03-25T09:38:43.350Z,20.79
2019-03-25T09:38:55.729Z,20.78
2019-03-25T09:39:07.373Z,20.78
2019-03-25T09:39:19.573Z,20.77
2019-03-25T09:39:31.610Z,20.76
2019-03-25T09:39:43.791Z,20.76
2019-03-25T09:39:56.130Z,20.76
2019-03-25T09:40:07.933Z,20.77
2019-03-25T09:40:20.671Z,20.78
2019-03-25T09:40:33.230Z,20.80
2019-03-25T09:40:45.691Z,20.81
2019-03-25T09:40:58.153Z,20.83
2019-03-25T09:41:10.850Z,20.84
2019-03-25T09:41:23.671Z,20.85
2019-03-25T09:41:35.594Z,20.86
2019-03-25T09:41:47.891Z,20.87
2019-03-25T09:41:59.473Z,20.88
2019-03-25T09:42:12.074Z,20.90
2019-03-25T09:42:24.071Z,20.90
2019-03-25T09:42:35.912Z,20.92
2019-03-25T09:42:48.391Z,20.92
2019-03-25T09:43:00.495Z,20.94
2019-03-25T09:43:12.530Z,20.96
2019-03-25T09:43:24.931Z,20.97
2019-03-25T09:43:37.763Z,20.98
2019-03-25T09:43:50.592Z,20.98
2019-03-25T09:44:02.748Z,20.99
2019-03-25T09:44:14.209Z,20.98
2019-03-25T09:44:26.191Z,20.99
2019-03-25T09:44:38.413Z,20.98
2019-03-25T09:44:51.811Z,20.99
2019-03-25T09:45:03.675Z,20.99
2019-03-25T09:45:15.529Z,20.98
2019-03-25T09:45:27.205Z,20.98
2019-03-25T09:45:39.973Z,20.97
2019-03-25T09:45:51.924Z,20.97
2019-03-25T09:46:05.233Z,20.97
2019-03-25T09:46:16.967Z,20.97
2019-03-25T09:46:29.039Z,20.96
2019-03-25T09:46:40.755Z,20.96
2019-03-25T09:46:52.871Z,20.95
2019-03-25T09:47:04.871Z,20.95
2019-03-25T09:47:17.534Z,20.95
2019-03-25T09:47:29.313Z,20.96
2019-03-25T09:47:41.741Z,20.95
2019-03-25T09:47:53.434Z,20.95
2019-03-25T09:48:05.271Z,20.95
2019-03-25T09:48:17.593Z,20.95
2019-03-25T09:48:30.375Z,20.96
2019-03-25T09:48:42.431Z,20.97
2019-03-25T09:48:54.690Z,21.00
2019-03-25T09:49:06.494Z,21.05
2019-03-25T09:49:18.332Z,21.10
2019-03-25T09:49:30.673Z,21.17
2019-03-25T09:49:43.429Z,21.23
2019-03-25T09:49:55.550Z,21.30
2019-03-25T09:50:07.394Z,21.36
2019-03-25T09:50:19.474Z,21.41
2019-03-25T09:50:31.611Z,21.44
2019-03-25T09:50:44.130Z,21.49
2019-03-25T09:50:56.155Z,21.53
2019-03-25T09:51:08.449Z,21.57
2019-03-25T09:51:20.795Z,21.61
2019-03-25T09:51:32.973Z,21.66
2019-03-25T09:51:44.872Z,21.71
2019-03-25T09:51:56.535Z,21.76
2019-03-25T09:52:08.473Z,21.80
2019-03-25T09:52:20.714Z,21.82
2019-03-25T09:52:38.451Z,21.84
2019-03-25T09:52:49.610Z,21.82
2019-03-25T09:53:02.292Z,21.77
2019-03-25T09:53:14.929Z,21.73
2019-03-25T09:53:27.193Z,21.68
2019-03-25T09:53:39.828Z,21.64
2019-03-25T09:53:51.887Z,21.59
2019-03-25T09:54:03.550Z,21.55
2019-03-25T09:54:15.632Z,21.52
2019-03-25T09:54:27.793Z,21.48
2019-03-25T09:54:40.152Z,21.44
2019-03-25T09:54:52.251Z,21.41
2019-03-25T09:55:04.933Z,21.40
2019-03-25T09:55:17.852Z,21.40
2019-03-25T09:55:29.832Z,21.40
2019-03-25T09:55:42.315Z,21.40
2019-03-25T09:55:54.331Z,21.40
2019-03-25T09:56:05.872Z,21.41
2019-03-25T09:56:18.974Z,21.41
2019-03-25T09:56:32.609Z,21.41
2019-03-25T09:56:45.256Z,21.41
2019-03-25T09:56:57.109Z,21.41
2019-03-25T09:57:09.726Z,21.40
2019-03-25T09:57:21.733Z,21.38
2019-03-25T09:57:33.771Z,21.38
2019-03-25T09:57:45.708Z,21.37
2019-03-25T09:57:58.035Z,21.37
2019-03-25T09:58:10.292Z,21.38
2019-03-25T09:58:22.710Z,21.38
2019-03-25T09:58:36.445Z,21.40
2019-03-25T09:58:49.694Z,21.39
2019-03-25T09:59:02.311Z,21.39
2019-03-25T09:59:14.869Z,21.39
2019-03-25T09:59:27.467Z,21.38
2019-03-25T09:59:40.033Z,21.39
2019-03-25T09:59:51.530Z,21.40
2019-03-25T10:00:03.989Z,21.40
2019-03-25T10:00:16.249Z,21.40
2019-03-25T10:00:28.571Z,21.41
2019-03-25T10:00:40.311Z,21.41
2019-03-25T10:00:52.535Z,21.42
2019-03-25T10:01:04.632Z,21.41
2019-03-25T10:01:17.113Z,21.42
2019-03-25T10:01:29.391Z,21.42
2019-03-25T10:01:41.130Z,21.42
2019-03-25T10:01:52.754Z,21.41
2019-03-25T10:02:04.909Z,21.41
2019-03-25T10:02:16.891Z,21.41
2019-03-25T10:02:28.830Z,21.40
2019-03-25T10:02:40.693Z,21.39
2019-03-25T10:02:52.513Z,21.38
2019-03-25T10:03:04.312Z,21.37
2019-03-25T10:03:16.332Z,21.36
2019-03-25T10:03:29.070Z,21.35
2019-03-25T10:03:41.152Z,21.35
2019-03-25T10:03:54.111Z,21.35
2019-03-25T10:04:06.978Z,21.34
2019-03-25T10:04:20.200Z,21.34
2019-03-25T10:04:33.073Z,21.35
2019-03-25T10:04:45.847Z,21.34
2019-03-25T10:04:58.312Z,21.35
2019-03-25T10:05:10.813Z,21.35
2019-03-25T10:05:23.315Z,21.35
2019-03-25T10:05:35.627Z,21.35
2019-03-25T10:05:49.412Z,21.34
2019-03-25T10:06:00.971Z,21.33
2019-03-25T10:06:13.431Z,21.33
2019-03-25T10:06:26.252Z,21.33
2019-03-25T10:06:38.150Z,21.31
2019-03-25T10:06:50.390Z,21.31
2019-03-25T10:07:02.060Z,21.31
2019-03-25T10:07:14.174Z,21.30
2019-03-25T10:07:28.307Z,21.30
2019-03-25T10:07:41.111Z,21.29
2019-03-25T10:07:53.074Z,21.29
2019-03-25T10:08:04.991Z,21.29
2019-03-25T10:08:17.090Z,21.31
2019-03-25T10:08:29.531Z,21.31
2019-03-25T10:08:41.672Z,21.30
2019-03-25T10:08:53.972Z,21.30
2019-03-25T10:09:06.554Z,21.30
2019-03-25T10:09:19.153Z,21.30
2019-03-25T10:09:32.809Z,21.30
2019-03-25T10:09:45.372Z,21.30
2019-03-25T10:09:57.649Z,21.29
2019-03-25T10:10:09.615Z,21.29
2019-03-25T10:10:21.994Z,21.29
2019-03-25T10:10:34.215Z,21.30
2019-03-25T10:10:46.177Z,21.30
2019-03-25T10:10:58.247Z,21.30
2019-03-25T10:11:10.230Z,21.30
2019-03-25T10:11:22.712Z,21.30
2019-03-25T10:11:34.891Z,21.29
2019-03-25T10:11:46.791Z,21.29
2019-03-25T10:11:58.894Z,21.28
2019-03-25T10:12:11.012Z,21.29
2019-03-25T10:12:22.855Z,21.29
2019-03-25T10:12:34.770Z,21.31
2019-03-25T10:12:47.254Z,21.31
2019-03-25T10:12:59.694Z,21.31
2019-03-25T10:13:12.434Z,21.31
2019-03-25T10:13:25.054Z,21.31
2019-03-25T10:13:36.832Z,21.32
2019-03-25T10:13:49.070Z,21.31
2019-03-25T10:14:01.171Z,21.31
2019-03-25T10:14:13.129Z,21.30
2019-03-25T10:14:24.988Z,21.30
2019-03-25T10:14:36.651Z,21.29
2019-03-25T10:14:48.913Z,21.28
2019-03-25T10:15:00.675Z,21.27
2019-03-25T10:15:13.172Z,21.25
2019-03-25T10:15:24.856Z,21.24
2019-03-25T10:15:36.729Z,21.24
2019-03-25T10:15:48.631Z,21.24
2019-03-25T10:16:01.050Z,21.24
2019-03-25T10:16:13.410Z,21.24
2019-03-25T10:16:25.093Z,21.23
2019-03-25T10:16:37.574Z,21.23
2019-03-25T10:16:49.710Z,21.22
2019-03-25T10:17:02.352Z,21.21
2019-03-25T10:17:14.089Z,21.21
2019-03-25T10:17:25.830Z,21.21
2019-03-25T10:17:38.089Z,21.21
2019-03-25T10:17:50.011Z,21.21
2019-03-25T10:18:02.012Z,21.22
2019-03-25T10:18:14.371Z,21.22
2019-03-25T10:18:26.295Z,21.23
2019-03-25T10:18:37.995Z,21.23
2019-03-25T10:18:49.633Z,21.24
2019-03-25T10:19:01.848Z,21.24
2019-03-25T10:19:14.251Z,21.24
2019-03-25T10:19:27.049Z,21.24
2019-03-25T10:19:38.591Z,21.24
2019-03-25T10:19:51.330Z,21.24
2019-03-25T10:20:03.671Z,21.25
2019-03-25T10:20:15.533Z,21.25
2019-03-25T10:20:27.724Z,21.26
2019-03-25T10:20:39.984Z,21.26
2019-03-25T10:20:52.230Z,21.26
2019-03-25T10:21:04.533Z,21.27
2019-03-25T10:21:16.816Z,21.27
2019-03-25T10:21:28.813Z,21.27
2019-03-25T10:21:40.471Z,21.27
2019-03-25T10:21:52.849Z,21.28
2019-03-25T10:22:05.210Z,21.29
2019-03-25T10:22:17.030Z,21.29
2019-03-25T10:22:29.113Z,21.30
2019-03-25T10:22:41.114Z,21.31
2019-03-25T10:22:52.910Z,21.31
2019-03-25T10:23:04.451Z,21.30
2019-03-25T10:23:16.531Z,21.31
2019-03-25T10:23:28.472Z,21.32
2019-03-25T10:23:41.224Z,21.33
2019-03-25T10:23:53.193Z,21.33
2019-03-25T10:24:05.247Z,21.33
2019-03-25T10:24:17.929Z,21.34
2019-03-25T10:24:30.451Z,21.33
2019-03-25T10:24:42.073Z,21.32
2019-03-25T10:24:53.972Z,21.32
2019-03-25T10:25:06.090Z,21.32
2019-03-25T10:25:18.270Z,21.33
2019-03-25T10:25:29.910Z,21.34
2019-03-25T10:25:41.955Z,21.34
2019-03-25T10:25:53.894Z,21.34
2019-03-25T10:26:06.612Z,21.34
2019-03-25T10:26:19.171Z,21.34
2019-03-25T10:26:30.989Z,21.34
2019-03-25T10:26:42.494Z,21.34
2019-03-25T10:26:55.753Z,21.34
2019-03-25T10:27:07.110Z,21.34
2019-03-25T10:27:18.842Z,21.34
2019-03-25T10:27:30.331Z,21.34
2019-03-25T10:27:42.770Z,21.34
2019-03-25T10:27:54.631Z,21.35
2019-03-25T10:28:06.468Z,21.35
2019-03-25T10:28:18.433Z,21.36
2019-03-25T10:28:30.050Z,21.36
2019-03-25T10:28:48.550Z,21.36
2019-03-25T10:28:58.511Z,21.37
2019-03-25T10:29:10.753Z,21.38
2019-03-25T10:29:22.812Z,21.38
2019-03-25T10:29:34.393Z,21.38
2019-03-25T10:29:46.190Z,21.37
2019-03-25T10:29:58.350Z,21.38
2019-03-25T10:30:11.190Z,21.37
2019-03-25T10:30:23.809Z,21.37
2019-03-25T10:30:36.391Z,21.37
2019-03-25T10:30:49.170Z,21.36
2019-03-25T10:31:00.810Z,21.35
2019-03-25T10:31:12.531Z,21.32
2019-03-25T10:31:24.351Z,21.28
2019-03-25T10:31:36.828Z,21.25
2019-03-25T10:31:48.734Z,21.22
2019-03-25T10:32:00.872Z,21.21
2019-03-25T10:32:12.811Z,21.20
2019-03-25T10:32:24.852Z,21.18
2019-03-25T10:32:37.033Z,21.17
2019-03-25T10:32:49.008Z,21.15
2019-03-25T10:33:00.871Z,21.14
2019-03-25T10:33:12.793Z,21.13
2019-03-25T10:33:24.751Z,21.14
2019-03-25T10:33:36.889Z,21.14
2019-03-25T10:33:49.352Z,21.13
2019-03-25T10:34:01.555Z,21.12
2019-03-25T10:34:13.908Z,21.11
2019-03-25T10:34:26.011Z,21.12
2019-03-25T10:34:38.595Z,21.11
2019-03-25T10:34:50.570Z,21.11
2019-03-25T10:35:02.775Z,21.12
2019-03-25T10:35:15.092Z,21.12
2019-03-25T10:35:27.534Z,21.12
2019-03-25T10:35:39.649Z,21.13
2019-03-25T10:35:51.853Z,21.13
2019-03-25T10:36:04.372Z,21.12
2019-03-25T10:36:15.954Z,21.12
2019-03-25T10:36:28.171Z,21.12
2019-03-25T10:36:40.633Z,21.12
2019-03-25T10:36:53.870Z,21.13
2019-03-25T10:37:06.134Z,21.12
2019-03-25T10:37:18.413Z,21.11
2019-03-25T10:37:30.815Z,21.11
2019-03-25T10:37:43.993Z,21.11
2019-03-25T10:37:56.115Z,21.10
2019-03-25T10:38:19.066Z,21.10
2019-03-25T10:38:25.578Z,21.09
2019-03-25T10:38:38.630Z,21.09
2019-03-25T10:38:50.313Z,21.09
2019-03-25T10:39:02.973Z,21.09
2019-03-25T10:39:15.812Z,21.09
2019-03-25T10:39:28.350Z,21.09
2019-03-25T10:39:40.549Z,21.08
2019-03-25T10:39:52.936Z,21.08
2019-03-25T10:40:04.907Z,21.08
2019-03-25T10:40:17.110Z,21.08
2019-03-25T10:40:28.750Z,21.07
2019-03-25T10:40:40.455Z,21.07
2019-03-25T10:40:52.409Z,21.07
2019-03-25T10:41:04.231Z,21.07
2019-03-25T10:41:17.630Z,21.07
2019-03-25T10:41:30.227Z,21.06
2019-03-25T10:41:42.211Z,21.06
2019-03-25T10:41:54.411Z,21.06
2019-03-25T10:42:06.691Z,21.06
2019-03-25T10:42:19.113Z,21.06
2019-03-25T10:42:32.092Z,21.05
2019-03-25T10:42:44.670Z,21.05
2019-03-25T10:42:56.573Z,21.04
2019-03-25T10:43:08.354Z,21.04
2019-03-25T10:43:20.372Z,21.04
2019-03-25T10:43:32.412Z,21.04
2019-03-25T10:43:44.874Z,21.04
2019-03-25T10:43:56.747Z,21.03
2019-03-25T10:44:08.750Z,21.03
2019-03-25T10:44:21.212Z,21.02
2019-03-25T10:44:33.290Z,21.02
2019-03-25T10:44:45.290Z,21.02
2019-03-25T10:44:57.331Z,21.01
2019-03-25T10:45:09.631Z,21.01
2019-03-25T10:45:21.434Z,21.00
2019-03-25T10:45:32.910Z,21.00
2019-03-25T10:45:44.575Z,21.00
2019-03-25T10:45:57.291Z,21.00
2019-03-25T10:46:10.070Z,21.00
2019-03-25T10:46:21.528Z,21.00
2019-03-25T10:46:33.544Z,21.00
2019-03-25T10:46:46.451Z,21.00
2019-03-25T10:46:59.208Z,21.01
2019-03-25T10:47:11.387Z,21.01
2019-03-25T10:47:24.071Z,21.01
2019-03-25T10:47:36.312Z,21.01
2019-03-25T10:47:48.407Z,21.00
2019-03-25T10:48:00.811Z,21.00
2019-03-25T10:48:13.188Z,21.00
2019-03-25T10:48:24.827Z,21.00
2019-03-25T10:48:37.252Z,20.99
2019-03-25T10:48:49.831Z,21.00
2019-03-25T10:49:02.151Z,21.00
2019-03-25T10:49:16.138Z,21.00
2019-03-25T10:49:29.388Z,20.99
2019-03-25T10:49:41.415Z,21.00
2019-03-25T10:49:53.371Z,21.00
2019-03-25T10:50:05.593Z,21.00
2019-03-25T10:50:17.652Z,21.00
2019-03-25T10:50:29.733Z,21.00
2019-03-25T10:50:41.848Z,20.99
2019-03-25T10:50:53.511Z,21.00
2019-03-25T10:51:05.989Z,21.00
2019-03-25T10:51:17.678Z,21.01
2019-03-25T10:51:30.273Z,21.00
2019-03-25T10:51:42.431Z,21.00
2019-03-25T10:51:54.558Z,21.00
2019-03-25T10:52:06.316Z,21.00
2019-03-25T10:52:18.530Z,21.00
2019-03-25T10:52:30.827Z,21.01
2019-03-25T10:52:42.512Z,21.01
2019-03-25T10:52:54.512Z,21.01
2019-03-25T10:53:06.333Z,21.02